Time;durP1;ratioP1;P1;durP2;ratioP2;P2;SDS_P1;SDS_P2;PMS_P1;PMS_P2;Temp;Humidity;BMP_temperature;BMP_pressure;BME280_temperature;BME280_humidity;BME280_pressure;Samples;Min_cycle;Max_cycle;Signal;HPM_P1;HPM_P2
2021/11/30 00:01:06;;;;;;;8.50;2.30;;;4.70;99.90;;;;;;5014776;28;20034;-87
2021/11/30 00:03:32;;;;;;;10.18;2.55;;;4.70;99.90;;;;;;5010552;28;20041;-86
2021/11/30 00:05:58;;;;;;;7.90;2.30;;;4.70;99.90;;;;;;5011728;28;20044;-87
2021/11/30 00:08:28;;;;;;;8.23;1.80;;;4.80;99.90;;;;;;5004414;28;20070;-85
2021/11/30 00:10:54;;;;;;;10.02;2.13;;;4.80;99.90;;;;;;5008382;28;20035;-85
2021/11/30 00:13:21;;;;;;;12.05;2.33;;;4.80;99.90;;;;;;4982882;28;20600;-85
2021/11/30 00:15:50;;;;;;;7.72;2.53;;;4.80;99.90;;;;;;4992190;28;20026;-85
2021/11/30 00:18:16;;;;;;;10.50;2.63;;;4.80;99.90;;;;;;4981179;28;20036;-86
2021/11/30 00:20:43;;;;;;;5.28;2.10;;;4.90;99.90;;;;;;4980423;28;20121;-85
2021/11/30 00:23:10;;;;;;;10.23;2.50;;;4.90;99.90;;;;;;4990416;28;20034;-85
2021/11/30 00:25:37;;;;;;;8.18;2.30;;;4.90;99.90;;;;;;4983669;28;20046;-85
2021/11/30 00:28:03;;;;;;;7.53;2.22;;;4.90;99.90;;;;;;4995068;28;20495;-86
2021/11/30 00:30:30;;;;;;;7.72;1.98;;;5.00;99.90;;;;;;4987196;28;20489;-85
2021/11/30 00:32:57;;;;;;;9.25;2.15;;;4.90;99.90;;;;;;4979014;28;20042;-85
2021/11/30 00:35:23;;;;;;;8.65;2.00;;;4.90;99.90;;;;;;4976201;28;20413;-86
2021/11/30 00:37:49;;;;;;;9.77;2.65;;;5.00;99.90;;;;;;4994326;28;20054;-85
2021/11/30 00:40:14;;;;;;;7.30;1.92;;;5.00;99.90;;;;;;4989022;28;20261;-85
2021/11/30 00:42:40;;;;;;;10.48;2.40;;;5.00;99.90;;;;;;4988312;28;20044;-85
2021/11/30 00:45:08;;;;;;;8.60;2.10;;;5.00;99.90;;;;;;4986571;28;20177;-85
2021/11/30 00:47:34;;;;;;;6.70;2.05;;;5.00;99.90;;;;;;4981680;28;20495;-85
2021/11/30 00:50:03;;;;;;;9.02;2.15;;;5.00;99.90;;;;;;4984511;28;20057;-85
2021/11/30 00:52:29;;;;;;;11.85;2.10;;;5.00;99.90;;;;;;4994927;28;20042;-85
2021/11/30 00:54:55;;;;;;;8.77;2.17;;;5.00;99.90;;;;;;4994435;28;20508;-85
2021/11/30 00:57:21;;;;;;;9.98;2.10;;;5.00;99.90;;;;;;4985801;28;20068;-85
2021/11/30 00:59:47;;;;;;;8.52;2.05;;;5.00;99.90;;;;;;4984138;28;20053;-87
2021/11/30 01:02:13;;;;;;;10.30;2.28;;;5.10;99.90;;;;;;4997346;28;20033;-86
2021/11/30 01:04:39;;;;;;;11.30;2.30;;;5.10;99.90;;;;;;4994014;28;20042;-85
2021/11/30 01:07:07;;;;;;;8.55;2.20;;;5.10;99.90;;;;;;4992112;28;20034;-86
2021/11/30 01:09:33;;;;;;;5.95;1.73;;;5.10;99.90;;;;;;4997705;28;20045;-86
2021/11/30 01:11:58;;;;;;;8.55;2.25;;;5.10;99.90;;;;;;4992395;28;20030;-85
2021/11/30 01:14:24;;;;;;;4.47;1.83;;;5.10;99.90;;;;;;5008711;28;20046;-87
2021/11/30 01:16:50;;;;;;;8.65;1.88;;;5.10;99.90;;;;;;5022652;28;21062;-85
2021/11/30 01:19:15;;;;;;;12.32;2.83;;;5.10;99.90;;;;;;4991888;28;20034;-86
2021/11/30 01:21:41;;;;;;;9.25;2.10;;;5.10;99.90;;;;;;4977754;28;20046;-86
2021/11/30 01:24:09;;;;;;;8.82;2.10;;;5.00;99.90;;;;;;4998559;28;20038;-87
2021/11/30 01:26:35;;;;;;;8.02;2.55;;;5.00;99.90;;;;;;5006949;28;20033;-87
2021/11/30 01:29:02;;;;;;;5.80;2.63;;;5.00;99.90;;;;;;5003139;28;20045;-86
2021/11/30 01:31:27;;;;;;;7.72;2.10;;;4.90;99.90;;;;;;5016268;28;20049;-87
2021/11/30 01:33:53;;;;;;;10.05;2.40;;;4.80;99.90;;;;;;5008927;28;20064;-85
2021/11/30 01:36:19;;;;;;;8.88;2.47;;;4.80;99.90;;;;;;4995473;28;20045;-86
2021/11/30 01:38:45;;;;;;;9.30;2.70;;;4.80;99.90;;;;;;4970492;28;20120;-86
2021/11/30 01:41:12;;;;;;;13.15;2.85;;;4.70;99.90;;;;;;4981701;28;20157;-86
2021/11/30 01:43:42;;;;;;;12.75;3.20;;;4.70;99.90;;;;;;4985516;28;20055;-86
2021/11/30 01:46:13;;;;;;;12.38;3.42;;;4.70;99.90;;;;;;4980442;28;20113;-86
2021/11/30 01:51:26;;;;;;;13.82;3.75;;;4.60;99.90;;;;;;4983686;28;20125;-86
2021/11/30 01:53:53;;;;;;;12.10;3.40;;;4.60;99.90;;;;;;4966470;28;20093;-86
2021/11/30 01:56:19;;;;;;;7.47;3.53;;;4.50;99.90;;;;;;4997757;28;20037;-85
2021/11/30 01:58:46;;;;;;;11.93;3.40;;;4.50;99.90;;;;;;4984717;28;20076;-86
2021/11/30 02:01:12;;;;;;;14.15;3.67;;;4.50;99.90;;;;;;5000496;28;20046;-86
2021/11/30 02:03:38;;;;;;;8.85;3.38;;;4.50;99.90;;;;;;5000933;28;20085;-86
2021/11/30 02:06:04;;;;;;;7.20;3.50;;;4.50;99.90;;;;;;5005969;28;20051;-86
2021/11/30 02:08:30;;;;;;;9.52;3.97;;;4.40;99.90;;;;;;4998523;28;20045;-86
2021/11/30 02:10:57;;;;;;;12.60;3.97;;;4.40;99.90;;;;;;5001962;28;20034;-86
2021/11/30 02:13:23;;;;;;;11.70;4.43;;;4.40;99.90;;;;;;4994170;28;20121;-86
2021/11/30 02:15:52;;;;;;;11.65;4.28;;;4.40;99.90;;;;;;5000334;28;20048;-86
2021/11/30 02:18:24;;;;;;;10.30;4.28;;;4.40;99.90;;;;;;4993844;28;20113;-86
2021/11/30 02:20:57;;;;;;;9.48;4.13;;;4.40;99.90;;;;;;5006477;28;20046;-86
2021/11/30 02:23:47;;;;;;;;;;;4.40;99.90;;;;;;4999655;28;20053;-85
2021/11/30 02:26:14;;;;;;;14.77;4.90;;;4.40;99.90;;;;;;4997061;28;19987;-86
2021/11/30 02:28:44;;;;;;;12.25;5.03;;;4.40;99.90;;;;;;5003456;28;20050;-86
2021/11/30 02:31:11;;;;;;;10.90;4.88;;;4.40;99.90;;;;;;4977486;28;20052;-86
2021/11/30 02:33:38;;;;;;;15.20;5.40;;;4.40;99.90;;;;;;4960923;28;20493;-86
2021/11/30 02:36:26;;;;;;;13.20;5.30;;;4.40;99.90;;;;;;4986060;28;20100;-86
2021/11/30 02:38:54;;;;;;;12.65;5.50;;;4.40;99.90;;;;;;4973721;28;20081;-86
2021/11/30 02:41:21;;;;;;;10.90;5.78;;;4.40;99.90;;;;;;4987927;28;20507;-85
2021/11/30 02:43:46;;;;;;;13.13;5.85;;;4.40;99.90;;;;;;4990833;28;20045;-86
2021/11/30 02:46:32;;;;;;;12.18;5.10;;;4.50;99.90;;;;;;5000546;28;20378;-86
2021/11/30 02:48:59;;;;;;;11.60;5.72;;;4.50;99.90;;;;;;4980063;28;20038;-86
2021/11/30 02:51:25;;;;;;;14.50;5.20;;;4.50;99.90;;;;;;4974129;28;20042;-86
2021/11/30 02:53:53;;;;;;;9.82;5.30;;;4.50;99.90;;;;;;4992648;28;20136;-86
2021/11/30 02:56:18;;;;;;;8.65;5.57;;;4.60;99.90;;;;;;4979683;28;20448;-85
2021/11/30 02:58:44;;;;;;;11.18;5.50;;;4.60;99.90;;;;;;4971242;28;20045;-85
2021/11/30 03:01:11;;;;;;;10.20;5.57;;;4.60;99.90;;;;;;4988606;28;20104;-86
2021/11/30 03:03:37;;;;;;;10.68;5.40;;;4.60;99.90;;;;;;4985299;28;20050;-86
2021/11/30 03:06:03;;;;;;;12.50;5.50;;;4.70;99.90;;;;;;4972474;28;20091;-86
2021/11/30 03:08:28;;;;;;;7.90;4.80;;;4.70;99.90;;;;;;4968518;28;20053;-86
2021/11/30 03:10:55;;;;;;;7.60;4.88;;;4.70;99.90;;;;;;4988806;28;20121;-86
2021/11/30 03:13:21;;;;;;;6.85;5.03;;;4.70;99.90;;;;;;4986028;28;20053;-86
2021/11/30 03:15:53;;;;;;;8.55;4.63;;;4.70;99.90;;;;;;4981645;28;20453;-86
2021/11/30 03:18:20;;;;;;;8.00;4.63;;;4.80;99.90;;;;;;4976258;28;20034;-85
2021/11/30 03:20:46;;;;;;;6.85;4.90;;;4.80;99.90;;;;;;4975206;28;20039;-86
2021/11/30 03:23:11;;;;;;;9.65;4.75;;;4.80;99.90;;;;;;4991864;28;20132;-86
2021/11/30 03:25:37;;;;;;;7.50;5.05;;;4.80;99.90;;;;;;4983864;28;20042;-86
2021/11/30 03:28:02;;;;;;;9.55;5.53;;;4.90;99.90;;;;;;4988736;28;20648;-86
2021/11/30 03:30:28;;;;;;;7.78;5.40;;;4.80;99.90;;;;;;4984970;28;20397;-86
2021/11/30 03:35:37;;;;;;;7.15;4.80;;;4.90;99.90;;;;;;4986818;28;20128;-86
2021/11/30 03:38:03;;;;;;;8.35;5.45;;;4.90;99.90;;;;;;4980374;28;20457;-86
2021/11/30 03:40:29;;;;;;;7.72;5.13;;;4.90;99.90;;;;;;4992561;28;20428;-86
2021/11/30 03:42:55;;;;;;;8.35;5.22;;;4.90;99.90;;;;;;4980621;28;20137;-87
2021/11/30 03:45:21;;;;;;;9.43;6.25;;;4.90;99.90;;;;;;4979500;28;20116;-86
2021/11/30 03:47:46;;;;;;;8.73;5.90;;;5.00;99.90;;;;;;4994460;28;20045;-87
2021/11/30 03:50:12;;;;;;;10.05;6.38;;;5.00;99.90;;;;;;4991951;28;20030;-86
2021/11/30 03:52:39;;;;;;;7.68;5.32;;;5.00;99.90;;;;;;4986260;28;20045;-86
2021/11/30 03:55:06;;;;;;;8.48;6.53;;;5.10;99.90;;;;;;4981135;28;20038;-87
2021/11/30 03:57:32;;;;;;;8.25;6.35;;;5.10;99.90;;;;;;4996582;28;20050;-86
2021/11/30 03:59:57;;;;;;;9.05;6.47;;;5.10;99.90;;;;;;5007632;28;20109;-86
2021/11/30 04:02:23;;;;;;;9.02;6.60;;;5.20;99.90;;;;;;4995245;28;20048;-86
2021/11/30 04:04:49;;;;;;;9.32;7.00;;;5.20;99.90;;;;;;4995025;28;20061;-86
2021/11/30 04:07:15;;;;;;;7.82;6.07;;;5.20;99.90;;;;;;4995126;28;20037;-86
2021/11/30 04:09:41;;;;;;;9.85;6.90;;;5.20;99.90;;;;;;4991381;28;20046;-86
2021/11/30 04:12:08;;;;;;;8.52;6.35;;;5.30;99.90;;;;;;4987953;28;20042;-86
2021/11/30 04:14:34;;;;;;;9.48;6.90;;;5.30;99.90;;;;;;4981409;28;20058;-86
2021/11/30 04:16:59;;;;;;;9.15;6.85;;;5.40;99.90;;;;;;4973815;28;20565;-87
2021/11/30 04:19:25;;;;;;;10.55;7.07;;;5.40;99.90;;;;;;4995475;28;20108;-86
2021/11/30 04:21:51;;;;;;;9.52;6.93;;;5.50;99.90;;;;;;4973436;28;20118;-86
2021/11/30 04:24:16;;;;;;;10.85;7.28;;;5.50;99.90;;;;;;4985739;28;20057;-86
2021/11/30 04:26:42;;;;;;;9.88;7.47;;;5.50;99.90;;;;;;4985849;28;20045;-86
2021/11/30 04:29:08;;;;;;;9.95;6.75;;;5.60;99.90;;;;;;4990362;28;20038;-86
2021/11/30 04:31:35;;;;;;;9.93;7.00;;;5.60;99.90;;;;;;4986063;28;20042;-86
2021/11/30 04:34:03;;;;;;;9.70;6.85;;;5.70;99.90;;;;;;4981855;28;20057;-87
2021/11/30 04:36:28;;;;;;;11.93;7.35;;;5.70;99.90;;;;;;4986258;28;20412;-86
2021/11/30 04:38:56;;;;;;;10.85;7.32;;;5.80;99.90;;;;;;4994122;28;20053;-86
2021/11/30 04:41:22;;;;;;;11.45;6.68;;;5.80;99.90;;;;;;4994485;28;20046;-86
2021/11/30 04:43:48;;;;;;;11.38;7.63;;;5.90;99.90;;;;;;4992315;28;20116;-87
2021/11/30 04:46:17;;;;;;;11.40;7.05;;;5.90;99.90;;;;;;4980232;28;21168;-86
2021/11/30 04:48:52;;;;;;;11.00;7.47;;;6.00;99.90;;;;;;4983867;28;20065;-87
2021/11/30 04:51:18;;;;;;;13.55;8.63;;;6.00;99.90;;;;;;4994747;28;20393;-87
2021/11/30 04:53:46;;;;;;;11.88;7.80;;;6.10;99.90;;;;;;4992630;28;20041;-86
2021/11/30 04:56:14;;;;;;;15.32;8.45;;;6.10;99.90;;;;;;4990088;28;20042;-86
2021/11/30 04:58:40;;;;;;;12.60;7.93;;;6.20;99.90;;;;;;4990978;28;20477;-86
2021/11/30 05:01:06;;;;;;;15.38;9.30;;;6.20;99.90;;;;;;4972730;28;20060;-86
2021/11/30 05:03:32;;;;;;;14.35;8.13;;;6.30;99.90;;;;;;4986707;28;20038;-86
2021/11/30 05:05:57;;;;;;;14.90;8.85;;;6.30;99.90;;;;;;4992261;28;20041;-87
2021/11/30 05:08:23;;;;;;;15.77;9.13;;;6.40;99.90;;;;;;4990132;28;20073;-87
2021/11/30 05:10:49;;;;;;;14.65;8.27;;;6.40;99.90;;;;;;4988527;28;20034;-86
2021/11/30 05:13:14;;;;;;;14.30;8.75;;;6.40;99.90;;;;;;4988746;28;20065;-87
2021/11/30 05:15:40;;;;;;;12.40;8.43;;;6.50;99.90;;;;;;4988356;28;20092;-86
2021/11/30 05:18:06;;;;;;;15.73;9.20;;;6.50;99.90;;;;;;4980832;28;20125;-86
2021/11/30 05:20:32;;;;;;;16.17;9.13;;;6.50;99.90;;;;;;5006709;28;20053;-86
2021/11/30 05:22:58;;;;;;;16.73;8.98;;;6.50;99.90;;;;;;4988543;28;20033;-87
2021/11/30 05:25:25;;;;;;;17.63;9.73;;;6.50;99.90;;;;;;4993650;28;20564;-87
2021/11/30 05:27:51;;;;;;;15.00;9.85;;;6.60;99.90;;;;;;4988119;28;20588;-89
2021/11/30 05:30:20;;;;;;;16.67;8.75;;;6.70;99.90;;;;;;4974418;28;20454;-88
2021/11/30 05:32:47;;;;;;;14.23;8.68;;;6.70;99.90;;;;;;4976484;28;20069;-88
2021/11/30 05:35:12;;;;;;;16.80;8.82;;;6.90;99.90;;;;;;4982875;28;20042;-88
2021/11/30 05:37:38;;;;;;;15.65;9.05;;;7.00;99.90;;;;;;4964597;28;20519;-88
2021/11/30 05:40:04;;;;;;;15.75;7.85;;;7.00;99.90;;;;;;4986785;28;20129;-88
2021/11/30 05:42:30;;;;;;;15.05;7.47;;;7.10;99.90;;;;;;4981259;28;20582;-89
2021/11/30 05:44:56;;;;;;;10.00;6.13;;;7.20;99.90;;;;;;4973597;28;20066;-88
2021/11/30 05:47:22;;;;;;;9.25;5.35;;;7.30;99.90;;;;;;4985660;28;20396;-87
2021/11/30 05:49:48;;;;;;;9.25;5.00;;;7.40;99.90;;;;;;4986485;28;20048;-87
2021/11/30 05:52:13;;;;;;;7.13;3.90;;;7.50;99.90;;;;;;4977814;28;20034;-87
2021/11/30 05:54:39;;;;;;;5.95;3.25;;;7.70;99.90;;;;;;4969727;28;20132;-88
2021/11/30 05:57:11;;;;;;;7.78;3.47;;;7.80;99.90;;;;;;4982099;28;20250;-88
2021/11/30 05:59:40;;;;;;;7.25;3.42;;;7.80;99.90;;;;;;4990250;28;20496;-87
2021/11/30 06:02:08;;;;;;;7.70;3.80;;;7.90;99.90;;;;;;4975481;28;20068;-88
2021/11/30 06:04:34;;;;;;;8.90;4.07;;;7.90;99.90;;;;;;4992354;28;20041;-88
2021/11/30 06:07:00;;;;;;;8.90;3.70;;;8.00;99.90;;;;;;4985137;28;20046;-88
2021/11/30 06:09:26;;;;;;;13.65;4.50;;;8.00;99.90;;;;;;4988517;28;20038;-88
2021/11/30 06:11:52;;;;;;;9.77;4.35;;;8.10;99.90;;;;;;4977603;28;20030;-88
2021/11/30 06:14:18;;;;;;;10.57;4.00;;;8.20;99.90;;;;;;4977319;28;20040;-87
2021/11/30 06:16:43;;;;;;;13.98;5.03;;;8.20;99.90;;;;;;4982893;28;20570;-87
2021/11/30 06:19:10;;;;;;;21.60;4.80;;;8.30;99.90;;;;;;4979736;28;20045;-87
2021/11/30 06:21:36;;;;;;;14.68;4.50;;;8.30;99.90;;;;;;4990122;28;20042;-86
2021/11/30 06:24:01;;;;;;;13.10;4.40;;;8.30;99.90;;;;;;4979478;28;20045;-86
2021/11/30 06:26:27;;;;;;;17.55;4.80;;;8.40;99.90;;;;;;4985031;28;20064;-88
2021/11/30 06:28:52;;;;;;;14.80;4.28;;;8.50;99.90;;;;;;4978086;28;20117;-86
2021/11/30 06:31:18;;;;;;;19.55;4.28;;;8.50;99.90;;;;;;5001314;28;20034;-86
2021/11/30 06:33:44;;;;;;;17.98;4.25;;;8.50;99.90;;;;;;4988405;28;20030;-88
2021/11/30 06:36:09;;;;;;;18.58;4.60;;;8.50;99.90;;;;;;5004606;28;20077;-85
2021/11/30 06:38:35;;;;;;;19.73;5.07;;;8.50;99.90;;;;;;4985430;28;20038;-83
2021/11/30 06:41:01;;;;;;;21.38;4.07;;;8.60;99.90;;;;;;4991209;28;20489;-84
2021/11/30 06:43:26;;;;;;;19.10;3.88;;;8.60;99.90;;;;;;4970642;28;20026;-86
2021/11/30 06:45:52;;;;;;;14.00;4.03;;;8.60;99.90;;;;;;4995870;28;20557;-85
2021/11/30 06:48:20;;;;;;;14.60;3.42;;;8.60;99.90;;;;;;5001035;28;20034;-85
2021/11/30 06:50:46;;;;;;;28.88;4.28;;;8.60;99.90;;;;;;5000780;28;20045;-85
2021/11/30 06:53:11;;;;;;;16.40;3.17;;;8.60;99.90;;;;;;4984091;28;20404;-85
2021/11/30 06:55:37;;;;;;;18.02;4.20;;;8.70;99.90;;;;;;4981582;28;20064;-84
2021/11/30 06:58:03;;;;;;;15.80;3.53;;;8.70;99.90;;;;;;4981860;28;20073;-85
2021/11/30 07:00:29;;;;;;;18.77;3.17;;;8.70;99.90;;;;;;4979422;28;20094;-85
2021/11/30 07:02:55;;;;;;;11.10;2.75;;;8.70;99.90;;;;;;5002398;28;20042;-85
2021/11/30 07:05:38;;;;;;;13.38;2.95;;;8.60;99.90;;;;;;4974786;28;20044;-85
2021/11/30 07:13:42;;;;;;;11.48;2.78;;;8.60;99.90;;;;;;4986291;28;20129;-85
2021/11/30 07:16:03;;;;;;;7.22;2.00;;;8.60;99.90;;;;;;4979529;28;20041;-85
2021/11/30 07:18:30;;;;;;;19.17;2.20;;;8.60;99.90;;;;;;4985436;28;20041;-89
2021/11/30 07:20:58;;;;;;;10.63;2.10;;;8.70;99.90;;;;;;4985172;28;20054;-86
2021/11/30 07:23:24;;;;;;;13.45;2.47;;;8.60;99.90;;;;;;4980456;28;20073;-86
2021/11/30 07:25:54;;;;;;;12.57;2.15;;;8.60;99.90;;;;;;4983966;28;20324;-86
2021/11/30 07:28:25;;;;;;;11.63;1.80;;;8.60;99.90;;;;;;4996694;28;20045;-86
2021/11/30 07:30:51;;;;;;;10.90;2.15;;;8.60;99.90;;;;;;4985420;28;20042;-86
2021/11/30 07:33:16;;;;;;;10.60;2.22;;;8.60;99.90;;;;;;4985983;28;20091;-86
2021/11/30 07:35:42;;;;;;;11.02;2.25;;;8.50;99.90;;;;;;4981258;28;20050;-85
2021/11/30 07:38:08;;;;;;;8.40;1.95;;;8.50;99.90;;;;;;5003828;28;20061;-86
2021/11/30 07:40:34;;;;;;;9.70;1.60;;;8.50;99.90;;;;;;4985505;28;20038;-86
2021/11/30 07:42:59;;;;;;;11.55;2.10;;;8.40;99.90;;;;;;4984665;28;20071;-87
2021/11/30 07:45:25;;;;;;;11.70;2.08;;;8.50;99.90;;;;;;5007473;28;20141;-86
2021/11/30 07:47:50;;;;;;;13.70;2.13;;;8.40;99.90;;;;;;4984752;28;20053;-86
2021/11/30 07:50:16;;;;;;;13.95;1.92;;;8.40;99.90;;;;;;4987173;28;20037;-86
2021/11/30 07:52:43;;;;;;;10.52;1.80;;;8.40;99.90;;;;;;4982424;28;20053;-86
2021/11/30 07:55:11;;;;;;;15.35;3.08;;;8.40;99.90;;;;;;4989774;28;20403;-86
2021/11/30 07:57:37;;;;;;;15.13;1.77;;;8.40;99.90;;;;;;4999667;28;20048;-86
2021/11/30 08:00:06;;;;;;;11.35;1.83;;;8.40;99.90;;;;;;4987354;28;20133;-86
2021/11/30 08:02:32;;;;;;;15.93;2.30;;;8.40;99.90;;;;;;4972415;28;20045;-86
2021/11/30 08:04:57;;;;;;;14.38;2.17;;;8.40;99.90;;;;;;4986747;28;20035;-86
2021/11/30 08:07:23;;;;;;;14.70;2.17;;;8.40;99.90;;;;;;4985565;28;20459;-86
2021/11/30 08:09:49;;;;;;;16.35;2.65;;;8.40;99.90;;;;;;4978106;28;20041;-86
2021/11/30 08:12:16;;;;;;;19.15;2.53;;;8.40;99.90;;;;;;4980369;28;20048;-86
2021/11/30 08:14:42;;;;;;;12.45;1.70;;;8.40;99.90;;;;;;4982957;28;20038;-87
2021/11/30 08:17:13;;;;;;;11.38;2.45;;;8.40;99.90;;;;;;4989357;28;20044;-85
2021/11/30 08:19:40;;;;;;;17.65;1.85;;;8.40;99.90;;;;;;4992708;28;20034;-83
2021/11/30 08:22:06;;;;;;;18.92;2.60;;;8.40;99.90;;;;;;4991190;28;20566;-85
2021/11/30 08:24:32;;;;;;;13.65;2.10;;;8.40;99.90;;;;;;4985046;28;20045;-88
2021/11/30 08:26:57;;;;;;;18.02;2.42;;;8.40;99.90;;;;;;4982771;28;20492;-86
2021/11/30 08:29:23;;;;;;;15.93;2.78;;;8.40;99.90;;;;;;4988153;28;20105;-86
2021/11/30 08:31:48;;;;;;;24.70;2.53;;;8.50;99.90;;;;;;4991933;28;20073;-86
2021/11/30 08:34:14;;;;;;;17.05;2.70;;;8.40;99.90;;;;;;4987078;28;20488;-86
2021/11/30 08:36:40;;;;;;;17.67;2.70;;;8.50;99.90;;;;;;4986549;28;20045;-86
2021/11/30 08:39:05;;;;;;;11.30;1.80;;;8.50;99.90;;;;;;4983718;28;20650;-85
2021/11/30 08:41:31;;;;;;;13.30;1.77;;;8.50;99.90;;;;;;4977153;28;20481;-85
2021/11/30 08:43:56;;;;;;;12.43;2.15;;;8.50;99.90;;;;;;4982912;28;20096;-85
2021/11/30 08:46:22;;;;;;;18.63;2.30;;;8.50;99.90;;;;;;4983054;28;20049;-85
2021/11/30 08:48:47;;;;;;;14.48;2.85;;;8.50;99.90;;;;;;4986247;28;20558;-86
2021/11/30 08:51:13;;;;;;;21.25;3.42;;;8.50;99.90;;;;;;4993215;28;20500;-85
2021/11/30 08:53:39;;;;;;;17.08;2.80;;;8.50;99.90;;;;;;4989963;28;20038;-86
2021/11/30 08:56:06;;;;;;;19.10;2.30;;;8.50;99.90;;;;;;4987709;28;20511;-85
2021/11/30 08:58:33;;;;;;;15.23;2.05;;;8.50;99.90;;;;;;4986063;28;20049;-85
2021/11/30 09:01:00;;;;;;;22.17;2.42;;;8.50;99.90;;;;;;4987627;28;20125;-85
2021/11/30 09:03:25;;;;;;;29.45;2.80;;;8.50;99.90;;;;;;4989882;28;20038;-85
2021/11/30 09:05:51;;;;;;;20.80;3.70;;;8.50;99.90;;;;;;4992603;28;20543;-86
2021/11/30 09:08:16;;;;;;;18.10;2.80;;;8.50;99.90;;;;;;4993103;28;20400;-86
2021/11/30 09:10:43;;;;;;;22.00;2.58;;;8.50;99.90;;;;;;4991071;28;20347;-85
2021/11/30 09:13:08;;;;;;;21.42;3.05;;;8.50;99.90;;;;;;4980313;28;20042;-86
2021/11/30 09:15:35;;;;;;;20.83;2.25;;;8.60;99.90;;;;;;4982991;28;20044;-86
2021/11/30 09:18:01;;;;;;;18.63;2.88;;;8.50;99.90;;;;;;4988566;28;20555;-83
2021/11/30 09:20:28;;;;;;;26.50;3.00;;;8.50;99.90;;;;;;4988911;28;20041;-84
2021/11/30 09:22:54;;;;;;;16.90;2.63;;;8.50;99.90;;;;;;4989105;28;20053;-83
2021/11/30 09:25:21;;;;;;;26.23;2.83;;;8.60;99.90;;;;;;4984230;28;20565;-83
2021/11/30 09:27:47;;;;;;;15.73;2.83;;;8.60;99.90;;;;;;4988172;28;20268;-84
2021/11/30 09:30:16;;;;;;;14.48;2.53;;;8.60;99.90;;;;;;5005089;28;20033;-83
2021/11/30 09:32:42;;;;;;;18.02;2.53;;;8.60;99.90;;;;;;4990777;28;20042;-83
2021/11/30 09:35:12;;;;;;;15.30;2.42;;;8.60;99.90;;;;;;4993516;28;20077;-84
2021/11/30 09:37:39;;;;;;;14.45;2.40;;;8.70;99.90;;;;;;4986668;28;20046;-83
2021/11/30 09:40:07;;;;;;;19.17;3.20;;;8.70;99.90;;;;;;4982743;28;20082;-83
2021/11/30 09:42:33;;;;;;;15.52;2.60;;;8.70;99.90;;;;;;4981223;28;20037;-83
2021/11/30 09:45:02;;;;;;;16.85;2.42;;;8.80;99.90;;;;;;4987671;28;20118;-83
2021/11/30 09:47:28;;;;;;;21.83;3.58;;;8.80;99.90;;;;;;4971799;28;20046;-83
2021/11/30 09:49:54;;;;;;;14.68;2.97;;;8.80;99.90;;;;;;4986993;28;20026;-83
2021/11/30 09:52:20;;;;;;;18.80;2.58;;;8.80;99.90;;;;;;4997904;28;20046;-83
2021/11/30 09:54:45;;;;;;;20.70;2.67;;;8.80;99.90;;;;;;4985844;28;20034;-83
2021/11/30 09:57:11;;;;;;;17.08;2.92;;;8.90;99.90;;;;;;4987084;28;20394;-83
2021/11/30 09:59:37;;;;;;;20.73;3.22;;;8.90;99.90;;;;;;4988956;28;20044;-84
2021/11/30 10:02:03;;;;;;;17.42;2.63;;;8.90;99.90;;;;;;4989307;28;20036;-83
2021/11/30 10:04:28;;;;;;;22.17;2.78;;;9.00;99.90;;;;;;4993448;28;20094;-84
2021/11/30 10:06:54;;;;;;;27.58;2.97;;;9.00;99.90;;;;;;4988239;28;20037;-84
2021/11/30 10:09:24;;;;;;;14.35;2.80;;;9.00;99.90;;;;;;4989946;28;20269;-83
2021/11/30 10:11:58;;;;;;;13.88;2.58;;;9.00;99.90;;;;;;4986586;28;20485;-84
2021/11/30 10:14:32;;;;;;;19.75;2.55;;;9.00;99.90;;;;;;4986718;28;20432;-84
2021/11/30 10:17:22;;;;;;;14.68;2.47;;;9.00;99.90;;;;;;4977846;28;20046;-84
2021/11/30 10:20:00;;;;;;;17.20;2.17;;;9.10;99.90;;;;;;4978738;28;20069;-83
2021/11/30 10:22:34;;;;;;;13.55;1.77;;;9.10;99.90;;;;;;4987358;28;20053;-84
2021/11/30 10:25:11;;;;;;;9.55;2.47;;;9.10;99.90;;;;;;4993178;28;20045;-84
2021/11/30 10:27:45;;;;;;;16.33;2.30;;;9.10;99.90;;;;;;4985434;28;20044;-84
2021/11/30 10:30:18;;;;;;;19.40;2.50;;;9.10;99.90;;;;;;4988371;28;20127;-84
2021/11/30 10:32:46;;;;;;;21.60;2.38;;;9.10;99.90;;;;;;4989990;28;20042;-84
2021/11/30 10:35:14;;;;;;;18.00;2.30;;;9.10;99.90;;;;;;4989139;28;20442;-84
2021/11/30 10:37:41;;;;;;;17.88;3.42;;;9.10;99.90;;;;;;5003290;28;20370;-83
2021/11/30 10:40:18;;;;;;;13.85;2.50;;;9.10;99.90;;;;;;4987652;28;20033;-83
2021/11/30 10:42:51;;;;;;;17.52;2.47;;;9.20;99.90;;;;;;4986763;28;20042;-83
2021/11/30 10:45:45;;;;;;;16.83;2.90;;;9.20;99.90;;;;;;4991868;28;20034;-84
2021/11/30 10:48:15;;;;;;;13.80;2.55;;;9.10;99.90;;;;;;4983396;28;20519;-84
2021/11/30 10:50:42;;;;;;;11.55;2.20;;;9.10;99.90;;;;;;4974161;28;20099;-84
2021/11/30 10:53:18;;;;;;;15.50;2.05;;;9.10;99.90;;;;;;4995885;28;20408;-83
2021/11/30 10:55:56;;;;;;;11.38;2.08;;;9.10;99.90;;;;;;4996521;28;20050;-83
2021/11/30 10:58:25;;;;;;;17.95;2.60;;;9.10;99.90;;;;;;4995031;28;20056;-83
2021/11/30 11:00:52;;;;;;;12.82;2.35;;;9.10;99.90;;;;;;4990737;28;20516;-84
2021/11/30 11:03:23;;;;;;;15.45;2.67;;;9.10;99.90;;;;;;4999249;28;20461;-84
2021/11/30 11:08:43;;;;;;;15.07;3.13;;;9.10;99.90;;;;;;4991660;28;20046;-84
2021/11/30 11:11:11;;;;;;;18.15;2.55;;;9.10;99.90;;;;;;4994914;28;20042;-83
2021/11/30 11:13:39;;;;;;;15.35;2.20;;;9.10;99.90;;;;;;4995673;28;20500;-83
2021/11/30 11:16:24;;;;;;;14.30;2.53;;;9.10;99.90;;;;;;4993343;28;20084;-84
2021/11/30 11:18:52;;;;;;;16.65;2.30;;;9.10;99.90;;;;;;4992799;28;20650;-84
2021/11/30 11:21:19;;;;;;;14.05;2.15;;;9.10;99.90;;;;;;4989611;28;20053;-84
2021/11/30 11:24:04;;;;;;;16.38;2.40;;;9.10;99.90;;;;;;4980010;28;20076;-83
2021/11/30 11:26:40;;;;;;;21.85;3.38;;;9.00;99.90;;;;;;4993171;28;20613;-84
2021/11/30 11:29:24;;;;;;;15.38;1.95;;;9.00;99.90;;;;;;4989316;28;20096;-84
2021/11/30 11:31:55;;;;;;;16.30;2.38;;;9.00;99.90;;;;;;4991182;28;20046;-84
2021/11/30 11:34:25;;;;;;;17.73;2.35;;;9.00;99.90;;;;;;4987191;28;20068;-83
2021/11/30 11:36:52;;;;;;;12.23;2.00;;;9.00;99.90;;;;;;4995309;28;20045;-84
2021/11/30 11:39:20;;;;;;;13.77;2.28;;;9.00;99.90;;;;;;4987718;28;20074;-83
2021/11/30 11:41:55;;;;;;;15.40;1.95;;;9.00;99.90;;;;;;4985461;28;20099;-84
2021/11/30 11:44:22;;;;;;;14.07;2.20;;;9.00;99.90;;;;;;4993374;28;20038;-83
2021/11/30 11:46:48;;;;;;;13.45;2.58;;;9.00;99.90;;;;;;4989447;28;20130;-83
2021/11/30 11:49:23;;;;;;;13.98;2.83;;;9.00;99.90;;;;;;4984374;28;20045;-84
2021/11/30 11:51:52;;;;;;;12.50;1.98;;;9.00;99.90;;;;;;4991852;28;20548;-84
2021/11/30 11:54:35;;;;;;;10.57;1.65;;;9.00;99.90;;;;;;4989673;28;20042;-83
2021/11/30 11:57:08;;;;;;;6.55;1.58;;;9.00;99.90;;;;;;4992730;28;20046;-84
2021/11/30 11:59:45;;;;;;;11.00;2.30;;;8.90;99.90;;;;;;4982731;28;20548;-84
2021/11/30 12:02:26;;;;;;;12.40;1.70;;;8.90;99.90;;;;;;4992177;28;20070;-84
2021/11/30 12:04:58;;;;;;;7.38;1.20;;;8.90;99.90;;;;;;4988738;28;20097;-85
2021/11/30 12:07:48;;;;;;;6.50;1.70;;;8.90;99.90;;;;;;5004798;28;20038;-85
2021/11/30 12:10:17;;;;;;;8.77;1.40;;;8.80;99.90;;;;;;4994423;28;20042;-86
2021/11/30 12:13:01;;;;;;;10.27;1.23;;;8.80;99.90;;;;;;4992184;28;20053;-86
2021/11/30 12:15:34;;;;;;;13.18;1.80;;;8.80;99.90;;;;;;4994592;28;20495;-86
2021/11/30 12:18:24;;;;;;;15.25;1.65;;;8.80;99.90;;;;;;4987246;28;20040;-87
2021/11/30 12:20:50;;;;;;;14.63;2.03;;;8.70;99.90;;;;;;4991295;28;20049;-86
2021/11/30 12:23:33;;;;;;;11.85;1.67;;;8.70;99.90;;;;;;4988043;28;20409;-86
2021/11/30 12:25:59;;;;;;;10.43;1.70;;;8.70;99.90;;;;;;4989547;28;20030;-85
2021/11/30 12:28:36;;;;;;;10.30;1.70;;;8.70;99.90;;;;;;4989276;28;20060;-85
2021/11/30 12:31:04;;;;;;;7.07;1.30;;;8.70;99.90;;;;;;4997106;28;20073;-87
2021/11/30 12:33:34;;;;;;;8.00;1.70;;;8.60;99.90;;;;;;4995081;28;20053;-87
2021/11/30 12:36:11;;;;;;;9.88;1.38;;;8.60;99.90;;;;;;4994480;28;20499;-87
2021/11/30 12:38:56;;;;;;;10.43;1.58;;;8.60;99.90;;;;;;4979049;28;20042;-86
2021/11/30 12:41:28;;;;;;;17.52;2.72;;;8.60;99.90;;;;;;4992084;28;20041;-87
2021/11/30 12:43:56;;;;;;;11.68;1.33;;;8.50;99.90;;;;;;4991997;28;20077;-83
2021/11/30 12:46:41;;;;;;;10.95;1.55;;;8.50;99.90;;;;;;4991675;28;20058;-85
2021/11/30 12:49:29;;;;;;;7.50;1.42;;;8.50;99.90;;;;;;4986925;28;20081;-85
2021/11/30 12:52:11;;;;;;;9.82;1.50;;;8.50;99.90;;;;;;4988611;28;20089;-85
2021/11/30 12:54:39;;;;;;;11.10;2.15;;;8.50;99.90;;;;;;4987968;28;20065;-85
2021/11/30 12:57:07;;;;;;;13.73;1.88;;;8.50;99.90;;;;;;4971261;28;20100;-84
2021/11/30 12:59:41;;;;;;;11.60;2.20;;;8.40;99.90;;;;;;4991581;28;20041;-84
2021/11/30 13:02:20;;;;;;;15.07;2.08;;;8.40;99.90;;;;;;4994483;28;20037;-86
2021/11/30 13:04:48;;;;;;;14.25;2.13;;;8.30;99.90;;;;;;4994802;28;20038;-84
2021/11/30 13:07:17;;;;;;;16.08;2.28;;;8.30;99.90;;;;;;4992405;28;20044;-84
2021/11/30 13:09:46;;;;;;;12.98;2.47;;;8.30;99.90;;;;;;4994863;28;20037;-84